createdAt,value
2022-11-24T00:01:08.797Z,3.20
2022-11-24T00:03:36.208Z,2.75
2022-11-24T00:06:15.028Z,2.88
2022-11-24T00:08:44.147Z,3.37
2022-11-24T00:11:16.262Z,3.13
2022-11-24T00:13:44.289Z,3.30
2022-11-24T00:16:11.409Z,3.50
2022-11-24T00:18:39.648Z,3.65
2022-11-24T00:21:07.433Z,3.60
2022-11-24T00:23:36.689Z,3.22
2022-11-24T00:26:13.436Z,3.60
2022-11-24T00:28:41.955Z,3.72
2022-11-24T00:31:24.832Z,3.58
2022-11-24T00:33:54.104Z,3.30
2022-11-24T00:36:22.346Z,3.58
2022-11-24T00:38:56.502Z,3.50
2022-11-24T00:41:25.349Z,3.42
2022-11-24T00:43:52.823Z,4.10
2022-11-24T00:46:20.417Z,3.20
2022-11-24T00:48:47.848Z,3.38
2022-11-24T00:51:16.508Z,4.03
2022-11-24T00:53:43.962Z,3.40
2022-11-24T00:56:11.977Z,3.40
2022-11-24T00:58:40.978Z,3.47
2022-11-24T01:01:13.265Z,3.20
2022-11-24T01:03:42.881Z,3.33
2022-11-24T01:06:12.793Z,3.60
2022-11-24T01:08:41.228Z,3.97
2022-11-24T01:11:17.299Z,3.57
2022-11-24T01:13:47.806Z,3.67
2022-11-24T01:16:18.600Z,4.18
2022-11-24T01:18:46.378Z,4.05
2022-11-24T01:21:14.199Z,3.85
2022-11-24T01:23:41.222Z,4.10
2022-11-24T01:26:10.920Z,3.80
2022-11-24T01:28:44.853Z,3.97
2022-11-24T01:31:14.893Z,4.13
2022-11-24T01:33:42.296Z,3.65
2022-11-24T01:36:09.133Z,4.37
2022-11-24T01:38:36.102Z,3.42
2022-11-24T01:41:08.244Z,3.53
2022-11-24T01:43:36.466Z,3.92
2022-11-24T01:46:29.175Z,4.15
2022-11-24T01:49:16.776Z,4.00
2022-11-24T01:51:51.626Z,4.03
2022-11-24T01:54:30.454Z,4.15
2022-11-24T01:57:17.244Z,4.15
2022-11-24T01:59:49.115Z,4.22
2022-11-24T02:02:22.127Z,4.37
2022-11-24T02:04:50.853Z,4.30
2022-11-24T02:07:19.147Z,4.57
2022-11-24T02:09:53.087Z,4.53
2022-11-24T02:12:23.313Z,5.13
2022-11-24T02:14:53.295Z,5.43
2022-11-24T02:17:20.915Z,5.13
2022-11-24T02:20:10.048Z,5.82
2022-11-24T02:23:15.518Z,5.50
2022-11-24T02:25:45.497Z,5.93
2022-11-24T02:28:17.258Z,5.70
2022-11-24T02:30:44.786Z,6.00
2022-11-24T02:33:12.567Z,5.63
2022-11-24T02:35:41.442Z,5.82
2022-11-24T02:38:13.427Z,5.45
2022-11-24T02:40:44.408Z,5.77
2022-11-24T02:43:16.150Z,6.75
2022-11-24T02:45:43.280Z,5.70
2022-11-24T02:48:10.178Z,5.75
2022-11-24T02:50:37.976Z,6.07
2022-11-24T02:53:04.788Z,6.03
2022-11-24T02:55:31.940Z,5.75
2022-11-24T02:57:58.918Z,6.05
2022-11-24T03:00:26.789Z,5.35
2022-11-24T03:02:53.670Z,5.20
2022-11-24T03:05:20.510Z,4.37
2022-11-24T03:07:47.501Z,5.35
2022-11-24T03:10:14.331Z,4.55
2022-11-24T03:12:41.261Z,5.47
2022-11-24T03:15:08.543Z,4.65
2022-11-24T03:17:35.553Z,4.77
2022-11-24T03:20:04.987Z,4.40
2022-11-24T03:22:32.441Z,4.78
2022-11-24T03:24:59.193Z,4.45
2022-11-24T03:27:26.052Z,4.20
2022-11-24T03:29:52.922Z,4.23
2022-11-24T03:32:19.758Z,4.13
2022-11-24T03:34:46.585Z,4.30
2022-11-24T03:37:13.444Z,4.00
2022-11-24T03:39:40.248Z,4.13
2022-11-24T03:42:07.282Z,4.10
2022-11-24T03:44:34.298Z,3.90
2022-11-24T03:47:01.505Z,4.22
2022-11-24T03:49:28.254Z,4.20
2022-11-24T03:51:55.116Z,4.25
2022-11-24T03:54:22.014Z,4.27
2022-11-24T03:56:48.817Z,4.20
2022-11-24T03:59:15.828Z,4.47
2022-11-24T04:01:42.692Z,4.93
2022-11-24T04:04:11.796Z,4.50
2022-11-24T04:06:39.008Z,4.20
2022-11-24T04:09:06.106Z,4.00
2022-11-24T04:11:32.968Z,3.95
2022-11-24T04:13:59.730Z,4.20
2022-11-24T04:16:26.709Z,4.63
2022-11-24T04:18:53.919Z,4.87
2022-11-24T04:21:21.222Z,4.28
2022-11-24T04:23:48.060Z,4.18
2022-11-24T04:26:15.031Z,4.13
2022-11-24T04:28:42.721Z,3.72
2022-11-24T04:31:09.785Z,3.80
2022-11-24T04:33:36.669Z,3.78
2022-11-24T04:36:04.060Z,3.65
2022-11-24T04:39:24.932Z,3.78
2022-11-24T04:41:18.363Z,3.70
2022-11-24T04:43:45.120Z,2.77
2022-11-24T04:46:12.088Z,2.78
2022-11-24T04:48:38.921Z,2.95
2022-11-24T04:51:06.708Z,3.05
2022-11-24T04:53:33.664Z,2.97
2022-11-24T04:56:05.407Z,2.47
2022-11-24T04:58:32.893Z,2.50
2022-11-24T05:01:00.096Z,2.50
2022-11-24T05:03:26.851Z,2.42
2022-11-24T05:05:53.750Z,2.30
2022-11-24T05:08:20.473Z,2.33
2022-11-24T05:10:47.276Z,2.10
2022-11-24T05:13:14.618Z,2.30
2022-11-24T05:15:42.403Z,1.88
2022-11-24T05:18:12.684Z,1.95
2022-11-24T05:20:39.496Z,1.80
2022-11-24T05:23:08.492Z,1.80
2022-11-24T05:25:35.908Z,1.55
2022-11-24T05:28:04.164Z,1.92
2022-11-24T05:30:32.479Z,1.80
2022-11-24T05:32:59.288Z,1.50
2022-11-24T05:35:26.184Z,1.58
2022-11-24T05:37:53.857Z,1.55
2022-11-24T05:40:20.556Z,1.60
2022-11-24T05:42:48.368Z,1.55
2022-11-24T05:45:18.138Z,1.53
2022-11-24T05:47:45.532Z,1.10
2022-11-24T05:50:14.909Z,1.20
2022-11-24T05:52:42.045Z,1.27
2022-11-24T05:55:10.460Z,1.20
2022-11-24T05:57:37.473Z,0.97
2022-11-24T06:00:08.808Z,1.10
2022-11-24T06:02:41.936Z,1.00
2022-11-24T06:05:09.168Z,0.90
2022-11-24T06:07:36.246Z,0.70
2022-11-24T06:10:05.163Z,1.00
2022-11-24T06:12:33.710Z,0.73
2022-11-24T06:15:00.434Z,0.73
2022-11-24T06:17:27.501Z,0.60
2022-11-24T06:19:54.251Z,0.50
2022-11-24T06:22:21.234Z,0.60
2022-11-24T06:24:48.109Z,0.50
2022-11-24T06:27:14.869Z,0.40
2022-11-24T06:29:41.805Z,0.50
2022-11-24T06:32:09.287Z,0.30
2022-11-24T06:34:36.970Z,0.30
2022-11-24T06:37:04.255Z,0.40
2022-11-24T06:39:31.059Z,0.47
2022-11-24T06:41:57.865Z,0.55
2022-11-24T06:44:24.808Z,0.30
2022-11-24T06:46:51.706Z,0.37
2022-11-24T06:49:18.998Z,0.30
2022-11-24T06:51:46.030Z,0.52
2022-11-24T06:54:18.328Z,0.40
2022-11-24T06:56:45.296Z,0.55
2022-11-24T06:59:20.709Z,0.47
2022-11-24T07:01:48.115Z,0.38
2022-11-24T07:04:15.608Z,0.32
2022-11-24T07:06:43.446Z,0.65
2022-11-24T07:09:11.898Z,0.50
2022-11-24T07:11:40.402Z,0.40
2022-11-24T07:14:07.738Z,0.70
2022-11-24T07:16:34.627Z,0.75
2022-11-24T07:19:01.504Z,0.60
2022-11-24T07:21:29.549Z,0.55
2022-11-24T07:23:58.050Z,0.60
2022-11-24T07:26:26.232Z,0.65
2022-11-24T07:28:53.060Z,0.77
2022-11-24T07:31:22.253Z,0.60
2022-11-24T07:33:50.250Z,0.73
2022-11-24T07:36:17.480Z,0.80
2022-11-24T07:38:44.319Z,0.57
2022-11-24T07:41:13.462Z,0.43
2022-11-24T07:43:41.079Z,0.50
2022-11-24T07:46:11.799Z,0.60
2022-11-24T07:48:39.099Z,0.67
2022-11-24T07:51:06.798Z,0.60
2022-11-24T07:53:34.361Z,0.38
2022-11-24T07:56:03.469Z,0.38
2022-11-24T07:58:33.438Z,0.32
2022-11-24T08:01:08.785Z,0.60
2022-11-24T08:03:35.945Z,0.30
2022-11-24T08:08:49.744Z,0.30
2022-11-24T08:11:18.078Z,0.32
2022-11-24T08:13:44.969Z,0.20
2022-11-24T08:16:14.188Z,0.40
2022-11-24T08:18:42.665Z,0.35
2022-11-24T08:21:13.733Z,0.28
2022-11-24T08:23:41.116Z,0.40
2022-11-24T08:26:13.996Z,0.30
2022-11-24T08:28:40.867Z,0.20
2022-11-24T08:31:18.772Z,0.30
2022-11-24T08:33:46.894Z,0.30
2022-11-24T08:36:16.646Z,0.57
2022-11-24T08:38:44.496Z,0.20
2022-11-24T08:41:14.617Z,0.30
2022-11-24T08:43:41.746Z,0.30
2022-11-24T08:46:12.277Z,0.30
2022-11-24T08:48:39.642Z,0.30
2022-11-24T08:51:11.538Z,0.10
2022-11-24T08:53:39.247Z,0.40
2022-11-24T08:56:08.193Z,0.30
2022-11-24T08:58:35.711Z,0.40
2022-11-24T09:01:05.541Z,0.40
2022-11-24T09:03:32.662Z,0.50
2022-11-24T09:05:59.458Z,0.60
2022-11-24T09:08:26.478Z,0.22
2022-11-24T09:10:53.262Z,0.77
2022-11-24T09:13:20.069Z,0.60
2022-11-24T09:15:46.951Z,0.60
2022-11-24T09:18:13.773Z,0.60
2022-11-24T09:23:25.014Z,0.90
2022-11-24T09:25:51.972Z,0.82
2022-11-24T09:28:18.804Z,0.70
2022-11-24T09:30:45.571Z,1.02
2022-11-24T09:33:12.364Z,1.20
2022-11-24T09:35:39.078Z,1.00
2022-11-24T09:38:05.935Z,1.10
2022-11-24T09:40:33.240Z,1.00
2022-11-24T09:43:06.655Z,1.23
2022-11-24T09:46:05.585Z,1.60
2022-11-24T09:48:54.729Z,1.30
2022-11-24T09:51:25.366Z,1.50
2022-11-24T09:53:59.209Z,1.40
2022-11-24T09:56:33.435Z,1.35
2022-11-24T09:59:11.023Z,2.00
2022-11-24T10:01:41.845Z,1.80
2022-11-24T10:04:18.860Z,1.63
2022-11-24T10:07:01.161Z,2.90
2022-11-24T10:09:49.162Z,2.30
2022-11-24T10:12:49.098Z,1.90
2022-11-24T10:15:53.293Z,2.00
2022-11-24T10:18:46.471Z,2.38
2022-11-24T10:21:26.343Z,2.53
2022-11-24T10:24:27.091Z,2.40
2022-11-24T10:27:02.511Z,2.53
2022-11-24T10:29:29.297Z,2.10
2022-11-24T10:31:57.009Z,2.15
2022-11-24T10:34:37.305Z,2.33
2022-11-24T10:37:18.013Z,1.67
2022-11-24T10:39:59.716Z,2.17
2022-11-24T10:42:28.867Z,2.10
2022-11-24T10:45:08.889Z,1.83
2022-11-24T10:47:35.965Z,1.40
2022-11-24T10:50:06.329Z,1.30
2022-11-24T10:52:41.387Z,1.77
2022-11-24T10:55:08.519Z,1.27
2022-11-24T10:57:39.317Z,1.27
2022-11-24T11:00:31.150Z,1.70
2022-11-24T11:03:34.011Z,1.63
2022-11-24T11:06:12.224Z,1.75
2022-11-24T11:08:40.729Z,1.10
2022-11-24T11:11:20.762Z,1.80
2022-11-24T11:13:59.775Z,1.60
2022-11-24T11:16:40.571Z,1.70
2022-11-24T11:20:01.558Z,1.63
2022-11-24T11:22:32.506Z,2.03
2022-11-24T11:25:33.738Z,1.85
2022-11-24T11:28:19.279Z,1.97
2022-11-24T11:31:16.633Z,2.17
2022-11-24T11:34:03.727Z,2.17
2022-11-24T11:36:41.317Z,1.90
2022-11-24T11:39:22.270Z,2.20
2022-11-24T11:41:53.861Z,2.10
2022-11-24T11:44:23.653Z,1.95
2022-11-24T11:46:50.482Z,1.80
2022-11-24T11:49:17.512Z,2.00
2022-11-24T11:55:11.424Z,1.97
2022-11-24T11:57:58.374Z,1.60
2022-11-24T12:00:25.182Z,1.88
2022-11-24T12:03:12.548Z,2.40
2022-11-24T12:05:51.168Z,2.05
2022-11-24T12:09:03.248Z,1.70
2022-11-24T12:11:43.008Z,1.90
2022-11-24T12:14:30.713Z,2.15
2022-11-24T12:17:04.640Z,2.20
2022-11-24T12:19:49.035Z,2.20
2022-11-24T12:22:33.567Z,2.00
2022-11-24T12:25:35.428Z,2.60
2022-11-24T12:28:06.161Z,2.20
2022-11-24T12:30:59.186Z,2.20
2022-11-24T12:33:55.366Z,2.30
2022-11-24T12:36:53.248Z,2.67
2022-11-24T12:39:32.564Z,2.58
2022-11-24T12:42:38.091Z,2.35
2022-11-24T12:45:13.209Z,2.33
2022-11-24T12:47:58.193Z,2.80
2022-11-24T12:50:29.245Z,3.00
2022-11-24T12:53:19.261Z,2.90
2022-11-24T12:55:47.108Z,2.28
2022-11-24T12:58:21.044Z,2.67
2022-11-24T13:01:21.736Z,2.33
2022-11-24T13:03:56.256Z,2.67
2022-11-24T13:06:26.325Z,2.70
2022-11-24T13:08:53.320Z,2.50
2022-11-24T13:11:23.135Z,2.28
2022-11-24T13:14:14.957Z,1.80
2022-11-24T13:17:33.729Z,2.27
2022-11-24T13:20:20.259Z,2.67
2022-11-24T13:22:56.792Z,2.58
2022-11-24T13:25:24.668Z,2.47
2022-11-24T13:28:05.771Z,2.65
2022-11-24T13:30:35.173Z,2.27
2022-11-24T13:33:15.825Z,2.40
2022-11-24T13:36:03.471Z,2.40
2022-11-24T13:38:43.527Z,2.20
2022-11-24T13:41:32.202Z,2.20
2022-11-24T13:44:14.013Z,2.03
2022-11-24T13:47:05.572Z,1.95
2022-11-24T13:49:40.800Z,2.03
2022-11-24T13:52:44.618Z,2.15
2022-11-24T13:55:14.332Z,2.40
2022-11-24T13:57:45.476Z,2.00
2022-11-24T14:00:37.071Z,1.40
2022-11-24T14:03:29.921Z,1.27
2022-11-24T14:05:57.669Z,1.10
2022-11-24T14:08:28.310Z,1.30
2022-11-24T14:10:57.632Z,0.90
2022-11-24T14:13:27.258Z,1.00
2022-11-24T14:16:09.080Z,1.20
2022-11-24T14:18:38.581Z,1.30
2022-11-24T14:21:20.660Z,1.80
2022-11-24T14:23:57.652Z,1.20
2022-11-24T14:26:33.912Z,0.90
2022-11-24T14:29:15.472Z,1.20
2022-11-24T14:31:52.164Z,1.20
2022-11-24T14:34:21.909Z,0.63
2022-11-24T14:36:49.773Z,0.63
2022-11-24T14:39:18.745Z,1.10
2022-11-24T14:42:07.735Z,1.00
2022-11-24T14:44:35.052Z,0.70
2022-11-24T14:47:24.505Z,0.65
2022-11-24T14:49:55.432Z,0.70
2022-11-24T14:52:23.775Z,0.88
2022-11-24T14:55:07.520Z,0.98
2022-11-24T14:57:44.656Z,0.98
2022-11-24T15:00:25.278Z,1.40
2022-11-24T15:03:13.339Z,1.30
2022-11-24T15:05:52.150Z,1.00
2022-11-24T15:08:19.086Z,1.10
2022-11-24T15:10:46.701Z,1.05
2022-11-24T15:13:21.164Z,1.20
2022-11-24T15:16:03.188Z,1.10
2022-11-24T15:18:42.885Z,1.15
2022-11-24T15:21:15.744Z,1.60
2022-11-24T15:24:06.386Z,1.20
2022-11-24T15:26:36.922Z,1.30
2022-11-24T15:29:09.430Z,1.60
2022-11-24T15:31:37.818Z,1.50
2022-11-24T15:34:04.816Z,1.23
2022-11-24T15:36:32.065Z,1.30
2022-11-24T15:38:59.095Z,0.80
2022-11-24T15:41:31.985Z,0.97
2022-11-24T15:43:59.395Z,0.93
2022-11-24T15:46:31.384Z,0.90
2022-11-24T15:48:58.327Z,0.90
2022-11-24T15:51:26.436Z,0.85
2022-11-24T15:54:00.273Z,0.80
2022-11-24T15:56:36.016Z,1.00
2022-11-24T15:59:04.146Z,1.00
2022-11-24T16:01:33.870Z,1.08
2022-11-24T16:04:03.285Z,1.10
2022-11-24T16:06:30.162Z,1.00
2022-11-24T16:08:57.039Z,1.00
2022-11-24T16:11:25.505Z,1.10
2022-11-24T16:13:54.204Z,1.30
2022-11-24T16:16:23.489Z,1.38
2022-11-24T16:18:51.291Z,1.30
2022-11-24T16:21:18.354Z,1.33
2022-11-24T16:23:45.110Z,1.50
2022-11-24T16:26:12.223Z,1.20
2022-11-24T16:28:39.419Z,1.00
2022-11-24T16:31:06.431Z,1.13
2022-11-24T16:33:33.280Z,2.33
2022-11-24T16:36:00.689Z,1.67
2022-11-24T16:38:28.270Z,1.10
2022-11-24T16:40:56.581Z,1.75
2022-11-24T16:43:23.697Z,2.10
2022-11-24T16:46:18.051Z,2.80
2022-11-24T16:48:46.478Z,1.98
2022-11-24T16:51:14.562Z,1.98
2022-11-24T16:53:41.690Z,1.30
2022-11-24T16:56:09.657Z,1.50
2022-11-24T16:58:40.920Z,1.70
2022-11-24T17:01:13.422Z,1.23
2022-11-24T17:03:41.471Z,1.80
2022-11-24T17:06:11.597Z,1.50
2022-11-24T17:08:40.555Z,1.60
2022-11-24T17:11:10.073Z,1.50
2022-11-24T17:13:37.808Z,1.42
2022-11-24T17:16:13.886Z,0.95
2022-11-24T17:18:42.024Z,1.15
2022-11-24T17:21:17.237Z,1.00
2022-11-24T17:23:45.235Z,1.10
2022-11-24T17:26:15.605Z,0.88
2022-11-24T17:28:43.757Z,1.00
2022-11-24T17:31:26.504Z,0.90
2022-11-24T17:33:56.488Z,1.00
2022-11-24T17:36:24.017Z,0.98
2022-11-24T17:38:51.519Z,1.00
2022-11-24T17:41:22.599Z,0.90
2022-11-24T17:43:55.160Z,1.00
2022-11-24T17:46:27.301Z,1.60
2022-11-24T17:48:56.277Z,1.17
2022-11-24T17:51:26.398Z,1.80
2022-11-24T17:53:55.488Z,1.33
2022-11-24T17:56:25.268Z,1.50
2022-11-24T17:58:54.341Z,1.60
2022-11-24T18:01:22.859Z,1.50
2022-11-24T18:03:53.836Z,2.05
2022-11-24T18:06:22.432Z,1.85
2022-11-24T18:08:50.077Z,1.70
2022-11-24T18:11:25.913Z,1.90
2022-11-24T18:14:00.783Z,1.65
2022-11-24T18:16:35.126Z,2.00
2022-11-24T18:19:09.078Z,1.90
2022-11-24T18:21:42.115Z,1.67
2022-11-24T18:24:13.883Z,1.47
2022-11-24T18:26:44.292Z,1.63
2022-11-24T18:29:12.682Z,1.35
2022-11-24T18:31:39.805Z,1.40
2022-11-24T18:34:07.374Z,1.33
2022-11-24T18:36:35.936Z,1.20
2022-11-24T18:39:08.570Z,1.13
2022-11-24T18:41:37.285Z,0.85
2022-11-24T18:44:05.613Z,0.80
2022-11-24T18:46:33.882Z,0.80
2022-11-24T18:49:03.030Z,0.90
2022-11-24T18:51:31.077Z,0.70
2022-11-24T18:53:58.863Z,0.80
2022-11-24T18:56:27.360Z,0.68
2022-11-24T18:58:57.328Z,0.88
2022-11-24T19:01:28.798Z,1.00
2022-11-24T19:04:01.448Z,1.00
2022-11-24T19:06:32.756Z,0.90
2022-11-24T19:09:07.199Z,0.60
2022-11-24T19:11:38.046Z,0.93
2022-11-24T19:14:09.530Z,0.60
2022-11-24T19:16:41.270Z,0.52
2022-11-24T19:19:12.447Z,0.65
2022-11-24T19:21:41.199Z,0.70
2022-11-24T19:24:11.309Z,0.40
2022-11-24T19:26:40.690Z,0.80
2022-11-24T19:29:09.424Z,0.63
2022-11-24T19:31:39.716Z,0.70
2022-11-24T19:34:07.885Z,0.35
2022-11-24T19:36:35.841Z,0.40
2022-11-24T19:39:03.417Z,0.50
2022-11-24T19:41:32.896Z,0.40
2022-11-24T19:44:00.584Z,0.40
2022-11-24T19:46:29.794Z,0.35
2022-11-24T19:49:01.577Z,0.28
2022-11-24T19:51:40.803Z,0.27
2022-11-24T19:54:12.810Z,0.30
2022-11-24T19:56:40.633Z,0.30
2022-11-24T19:59:08.956Z,0.30
2022-11-24T20:01:40.321Z,0.20
2022-11-24T20:04:11.434Z,0.10
2022-11-24T20:06:41.578Z,0.30
2022-11-24T20:09:12.826Z,0.35
2022-11-24T20:11:41.993Z,0.50
2022-11-24T20:14:16.991Z,0.30
2022-11-24T20:16:44.887Z,0.40
2022-11-24T20:19:14.852Z,0.47
2022-11-24T20:21:44.301Z,0.60
2022-11-24T20:24:15.197Z,0.60
2022-11-24T20:26:47.420Z,0.50
2022-11-24T20:29:17.740Z,0.50
2022-11-24T20:31:54.880Z,0.68
2022-11-24T20:34:25.834Z,0.52
2022-11-24T20:36:53.561Z,0.60
2022-11-24T20:39:24.500Z,0.40
2022-11-24T20:41:53.211Z,0.47
2022-11-24T20:44:22.209Z,0.40
2022-11-24T20:46:52.052Z,0.50
2022-11-24T20:49:20.506Z,0.60
2022-11-24T20:51:48.902Z,0.60
2022-11-24T20:54:18.863Z,1.07
2022-11-24T20:56:48.072Z,0.90
2022-11-24T20:59:18.393Z,0.73
2022-11-24T21:01:46.836Z,0.68
2022-11-24T21:04:20.224Z,0.45
2022-11-24T21:06:48.389Z,0.70
2022-11-24T21:09:16.093Z,0.40
2022-11-24T21:11:43.697Z,0.40
2022-11-24T21:14:11.968Z,0.50
2022-11-24T21:16:42.520Z,0.38
2022-11-24T21:19:15.888Z,0.30
2022-11-24T21:21:44.843Z,0.57
2022-11-24T21:24:14.750Z,0.30
2022-11-24T21:26:43.878Z,0.30
2022-11-24T21:29:15.335Z,0.43
2022-11-24T21:31:42.695Z,0.30
2022-11-24T21:34:14.349Z,0.38
2022-11-24T21:36:41.746Z,0.50
2022-11-24T21:39:10.728Z,0.50
2022-11-24T21:41:38.375Z,0.38
2022-11-24T21:44:05.260Z,0.50
2022-11-24T21:46:32.123Z,0.40
2022-11-24T21:48:58.920Z,0.20
2022-11-24T21:51:25.982Z,0.30
2022-11-24T21:53:53.791Z,0.43
2022-11-24T21:56:22.729Z,0.23
2022-11-24T21:58:55.510Z,0.17
2022-11-24T22:01:25.109Z,0.30
2022-11-24T22:03:52.043Z,0.10
2022-11-24T22:06:20.801Z,0.30
2022-11-24T22:08:49.054Z,0.30
2022-11-24T22:11:24.516Z,0.20
2022-11-24T22:13:52.775Z,0.30
2022-11-24T22:16:22.461Z,0.30
2022-11-24T22:18:50.312Z,0.32
2022-11-24T22:21:20.641Z,0.43
2022-11-24T22:23:51.634Z,0.50
2022-11-24T22:26:21.425Z,0.40
2022-11-24T22:28:49.512Z,0.40
2022-11-24T22:31:31.016Z,0.50
2022-11-24T22:33:59.443Z,0.57
2022-11-24T22:36:29.370Z,0.57
2022-11-24T22:38:58.465Z,0.50
2022-11-24T22:41:26.133Z,0.50
2022-11-24T22:43:53.656Z,0.50
2022-11-24T22:46:23.357Z,0.47
2022-11-24T22:48:52.375Z,0.60
2022-11-24T22:51:23.574Z,0.68
2022-11-24T22:53:56.876Z,0.50
2022-11-24T22:56:25.225Z,0.50
2022-11-24T22:58:51.935Z,0.50
2022-11-24T23:01:21.807Z,0.40
2022-11-24T23:03:49.738Z,0.50
2022-11-24T23:06:20.481Z,0.73
2022-11-24T23:08:50.168Z,0.50
2022-11-24T23:11:36.583Z,0.67
2022-11-24T23:14:07.633Z,0.60
2022-11-24T23:16:34.603Z,0.28
2022-11-24T23:19:01.400Z,0.88
2022-11-24T23:21:30.800Z,0.50
2022-11-24T23:24:22.910Z,0.50
2022-11-24T23:26:49.741Z,0.60
2022-11-24T23:29:16.469Z,0.30
2022-11-24T23:31:44.649Z,0.50
2022-11-24T23:34:11.641Z,0.50
2022-11-24T23:36:39.492Z,0.33
2022-11-24T23:39:09.192Z,0.20
2022-11-24T23:41:36.221Z,0.30
2022-11-24T23:44:03.293Z,0.35
2022-11-24T23:46:30.506Z,0.30
2022-11-24T23:48:57.405Z,0.40
2022-11-24T23:51:27.401Z,0.40
2022-11-24T23:53:55.852Z,0.38
2022-11-24T23:56:25.313Z,0.32
2022-11-24T23:58:52.220Z,0.20
